sensor_id;sensor_type;location;lat;lon;timestamp;P1;durP1;ratioP1;P2;durP2;ratioP2
2858;SDS011;1437;53.250;10.406;2023-05-23T00:00:40;9.33;;;7.63;;
2858;SDS011;1437;53.250;10.406;2023-05-23T00:03:08;10.67;;;7.40;;
2858;SDS011;1437;53.250;10.406;2023-05-23T00:05:35;7.73;;;6.57;;
2858;SDS011;1437;53.250;10.406;2023-05-23T00:08:02;8.37;;;7.17;;
2858;SDS011;1437;53.250;10.406;2023-05-23T00:10:30;7.40;;;6.70;;
2858;SDS011;1437;53.250;10.406;2023-05-23T00:12:59;9.20;;;6.83;;
2858;SDS011;1437;53.250;10.406;2023-05-23T00:15:27;8.00;;;6.73;;
2858;SDS011;1437;53.250;10.406;2023-05-23T00:17:57;8.17;;;7.30;;
2858;SDS011;1437;53.250;10.406;2023-05-23T00:20:33;6.97;;;6.30;;
2858;SDS011;1437;53.250;10.406;2023-05-23T00:23:05;13.33;;;7.97;;
2858;SDS011;1437;53.250;10.406;2023-05-23T00:25:35;11.60;;;7.47;;
2858;SDS011;1437;53.250;10.406;2023-05-23T00:28:15;8.23;;;7.40;;
2858;SDS011;1437;53.250;10.406;2023-05-23T00:30:49;8.90;;;6.70;;
2858;SDS011;1437;53.250;10.406;2023-05-23T00:33:32;9.20;;;7.47;;
2858;SDS011;1437;53.250;10.406;2023-05-23T00:36:00;9.23;;;7.67;;
2858;SDS011;1437;53.250;10.406;2023-05-23T00:38:28;9.30;;;7.50;;
2858;SDS011;1437;53.250;10.406;2023-05-23T00:40:55;8.53;;;7.73;;
2858;SDS011;1437;53.250;10.406;2023-05-23T00:43:29;13.30;;;9.20;;
2858;SDS011;1437;53.250;10.406;2023-05-23T00:45:57;8.47;;;7.60;;
2858;SDS011;1437;53.250;10.406;2023-05-23T00:48:24;9.30;;;8.03;;
2858;SDS011;1437;53.250;10.406;2023-05-23T00:50:52;9.20;;;8.27;;
2858;SDS011;1437;53.250;10.406;2023-05-23T00:53:20;9.10;;;8.00;;
2858;SDS011;1437;53.250;10.406;2023-05-23T00:55:48;11.77;;;9.60;;
2858;SDS011;1437;53.250;10.406;2023-05-23T00:58:15;10.60;;;8.67;;
2858;SDS011;1437;53.250;10.406;2023-05-23T01:00:48;10.80;;;9.03;;
2858;SDS011;1437;53.250;10.406;2023-05-23T01:03:18;8.77;;;7.97;;
2858;SDS011;1437;53.250;10.406;2023-05-23T01:05:46;9.60;;;8.07;;
2858;SDS011;1437;53.250;10.406;2023-05-23T01:08:13;10.67;;;9.33;;
2858;SDS011;1437;53.250;10.406;2023-05-23T01:10:41;9.50;;;8.50;;
2858;SDS011;1437;53.250;10.406;2023-05-23T01:13:21;10.60;;;8.30;;
2858;SDS011;1437;53.250;10.406;2023-05-23T01:15:55;9.97;;;8.97;;
2858;SDS011;1437;53.250;10.406;2023-05-23T01:18:26;9.63;;;8.60;;
2858;SDS011;1437;53.250;10.406;2023-05-23T01:20:58;10.90;;;9.80;;
2858;SDS011;1437;53.250;10.406;2023-05-23T01:23:34;10.23;;;8.37;;
2858;SDS011;1437;53.250;10.406;2023-05-23T01:26:10;10.20;;;9.20;;
2858;SDS011;1437;53.250;10.406;2023-05-23T01:28:44;10.50;;;9.43;;
2858;SDS011;1437;53.250;10.406;2023-05-23T01:31:12;9.47;;;8.57;;
2858;SDS011;1437;53.250;10.406;2023-05-23T01:33:43;10.40;;;9.40;;
2858;SDS011;1437;53.250;10.406;2023-05-23T01:36:12;11.33;;;9.50;;
2858;SDS011;1437;53.250;10.406;2023-05-23T01:38:40;10.87;;;8.70;;
2858;SDS011;1437;53.250;10.406;2023-05-23T01:41:07;10.80;;;8.97;;
2858;SDS011;1437;53.250;10.406;2023-05-23T01:43:35;10.67;;;9.57;;
2858;SDS011;1437;53.250;10.406;2023-05-23T01:46:09;11.10;;;9.30;;
2858;SDS011;1437;53.250;10.406;2023-05-23T01:48:40;11.00;;;9.90;;
2858;SDS011;1437;53.250;10.406;2023-05-23T01:51:11;11.13;;;8.40;;
2858;SDS011;1437;53.250;10.406;2023-05-23T01:53:41;14.20;;;9.50;;
2858;SDS011;1437;53.250;10.406;2023-05-23T01:56:09;10.90;;;9.77;;
2858;SDS011;1437;53.250;10.406;2023-05-23T01:58:42;13.80;;;10.10;;
2858;SDS011;1437;53.250;10.406;2023-05-23T02:01:13;11.80;;;9.90;;
2858;SDS011;1437;53.250;10.406;2023-05-23T02:03:45;8.97;;;8.03;;
2858;SDS011;1437;53.250;10.406;2023-05-23T02:06:13;11.10;;;10.00;;
2858;SDS011;1437;53.250;10.406;2023-05-23T02:08:40;11.77;;;10.23;;
2858;SDS011;1437;53.250;10.406;2023-05-23T02:11:11;10.57;;;9.50;;
2858;SDS011;1437;53.250;10.406;2023-05-23T02:13:38;11.50;;;10.30;;
2858;SDS011;1437;53.250;10.406;2023-05-23T02:16:06;13.37;;;10.20;;
2858;SDS011;1437;53.250;10.406;2023-05-23T02:18:34;11.73;;;10.53;;
2858;SDS011;1437;53.250;10.406;2023-05-23T02:21:03;13.17;;;11.00;;
2858;SDS011;1437;53.250;10.406;2023-05-23T02:23:31;13.50;;;12.10;;
2858;SDS011;1437;53.250;10.406;2023-05-23T02:25:58;14.43;;;11.30;;
2858;SDS011;1437;53.250;10.406;2023-05-23T02:28:26;16.97;;;13.93;;
2858;SDS011;1437;53.250;10.406;2023-05-23T02:30:53;19.30;;;16.17;;
2858;SDS011;1437;53.250;10.406;2023-05-23T02:33:21;21.40;;;15.60;;
2858;SDS011;1437;53.250;10.406;2023-05-23T02:35:53;18.17;;;15.47;;
2858;SDS011;1437;53.250;10.406;2023-05-23T02:38:21;20.87;;;15.97;;
2858;SDS011;1437;53.250;10.406;2023-05-23T02:40:48;24.00;;;20.63;;
2858;SDS011;1437;53.250;10.406;2023-05-23T02:43:17;24.90;;;21.37;;
2858;SDS011;1437;53.250;10.406;2023-05-23T02:45:45;26.17;;;22.90;;
2858;SDS011;1437;53.250;10.406;2023-05-23T02:48:12;36.53;;;24.67;;
2858;SDS011;1437;53.250;10.406;2023-05-23T02:50:40;29.83;;;23.67;;
2858;SDS011;1437;53.250;10.406;2023-05-23T02:53:09;32.60;;;24.70;;
2858;SDS011;1437;53.250;10.406;2023-05-23T02:55:36;28.70;;;25.30;;
2858;SDS011;1437;53.250;10.406;2023-05-23T02:58:04;31.40;;;23.60;;
2858;SDS011;1437;53.250;10.406;2023-05-23T03:00:31;30.70;;;25.07;;
2858;SDS011;1437;53.250;10.406;2023-05-23T03:02:58;28.37;;;25.30;;
2858;SDS011;1437;53.250;10.406;2023-05-23T03:05:26;31.10;;;24.57;;
2858;SDS011;1437;53.250;10.406;2023-05-23T03:07:54;33.40;;;24.33;;
2858;SDS011;1437;53.250;10.406;2023-05-23T03:10:23;38.27;;;27.70;;
2858;SDS011;1437;53.250;10.406;2023-05-23T03:12:50;34.13;;;27.40;;
2858;SDS011;1437;53.250;10.406;2023-05-23T03:15:18;33.53;;;26.43;;
2858;SDS011;1437;53.250;10.406;2023-05-23T03:17:48;39.30;;;27.67;;
2858;SDS011;1437;53.250;10.406;2023-05-23T03:20:15;36.10;;;27.77;;
2858;SDS011;1437;53.250;10.406;2023-05-23T03:22:43;35.77;;;28.03;;
2858;SDS011;1437;53.250;10.406;2023-05-23T03:25:10;32.27;;;25.07;;
2858;SDS011;1437;53.250;10.406;2023-05-23T03:27:41;36.97;;;26.70;;
2858;SDS011;1437;53.250;10.406;2023-05-23T03:30:11;37.47;;;28.37;;
2858;SDS011;1437;53.250;10.406;2023-05-23T03:32:39;37.73;;;27.57;;
2858;SDS011;1437;53.250;10.406;2023-05-23T03:35:06;35.43;;;27.00;;
2858;SDS011;1437;53.250;10.406;2023-05-23T03:37:34;34.60;;;26.63;;
2858;SDS011;1437;53.250;10.406;2023-05-23T03:40:07;38.77;;;28.03;;
2858;SDS011;1437;53.250;10.406;2023-05-23T03:42:37;34.70;;;25.13;;
2858;SDS011;1437;53.250;10.406;2023-05-23T03:45:07;37.00;;;26.97;;
2858;SDS011;1437;53.250;10.406;2023-05-23T03:47:34;36.40;;;25.80;;
2858;SDS011;1437;53.250;10.406;2023-05-23T03:50:08;37.30;;;28.30;;
2858;SDS011;1437;53.250;10.406;2023-05-23T03:52:36;42.30;;;28.07;;
2858;SDS011;1437;53.250;10.406;2023-05-23T03:55:04;32.37;;;25.80;;
2858;SDS011;1437;53.250;10.406;2023-05-23T03:57:33;32.30;;;26.63;;
2858;SDS011;1437;53.250;10.406;2023-05-23T04:00:05;32.03;;;26.00;;
2858;SDS011;1437;53.250;10.406;2023-05-23T04:02:38;31.57;;;23.47;;
2858;SDS011;1437;53.250;10.406;2023-05-23T04:05:05;38.10;;;27.13;;
2858;SDS011;1437;53.250;10.406;2023-05-23T04:07:33;36.63;;;26.80;;
2858;SDS011;1437;53.250;10.406;2023-05-23T04:10:05;34.40;;;26.00;;
2858;SDS011;1437;53.250;10.406;2023-05-23T04:12:33;31.10;;;26.57;;
2858;SDS011;1437;53.250;10.406;2023-05-23T04:15:00;34.47;;;26.37;;
2858;SDS011;1437;53.250;10.406;2023-05-23T04:17:40;32.40;;;23.80;;
2858;SDS011;1437;53.250;10.406;2023-05-23T04:20:08;33.33;;;22.77;;
2858;SDS011;1437;53.250;10.406;2023-05-23T04:22:38;34.43;;;23.33;;
2858;SDS011;1437;53.250;10.406;2023-05-23T04:25:07;28.60;;;22.73;;
2858;SDS011;1437;53.250;10.406;2023-05-23T04:27:35;28.87;;;20.70;;
2858;SDS011;1437;53.250;10.406;2023-05-23T04:30:11;24.30;;;20.50;;
2858;SDS011;1437;53.250;10.406;2023-05-23T04:32:43;29.67;;;21.43;;
2858;SDS011;1437;53.250;10.406;2023-05-23T04:35:12;31.70;;;23.57;;
2858;SDS011;1437;53.250;10.406;2023-05-23T04:37:41;28.93;;;21.00;;
2858;SDS011;1437;53.250;10.406;2023-05-23T04:40:10;34.07;;;22.13;;
2858;SDS011;1437;53.250;10.406;2023-05-23T04:42:46;27.77;;;21.03;;
2858;SDS011;1437;53.250;10.406;2023-05-23T04:45:15;24.63;;;20.47;;
2858;SDS011;1437;53.250;10.406;2023-05-23T04:47:45;23.37;;;18.40;;
2858;SDS011;1437;53.250;10.406;2023-05-23T04:50:13;25.40;;;19.13;;
2858;SDS011;1437;53.250;10.406;2023-05-23T04:52:41;24.90;;;17.93;;
2858;SDS011;1437;53.250;10.406;2023-05-23T04:55:09;24.20;;;19.10;;
2858;SDS011;1437;53.250;10.406;2023-05-23T04:57:38;22.57;;;18.83;;
2858;SDS011;1437;53.250;10.406;2023-05-23T05:00:06;22.73;;;18.33;;
2858;SDS011;1437;53.250;10.406;2023-05-23T05:02:37;24.20;;;16.83;;
2858;SDS011;1437;53.250;10.406;2023-05-23T05:05:08;24.10;;;18.30;;
2858;SDS011;1437;53.250;10.406;2023-05-23T05:07:42;23.77;;;17.20;;
2858;SDS011;1437;53.250;10.406;2023-05-23T05:10:21;22.20;;;15.90;;
2858;SDS011;1437;53.250;10.406;2023-05-23T05:12:55;19.47;;;16.53;;
2858;SDS011;1437;53.250;10.406;2023-05-23T05:15:24;22.53;;;16.67;;
2858;SDS011;1437;53.250;10.406;2023-05-23T05:17:53;24.87;;;17.60;;
2858;SDS011;1437;53.250;10.406;2023-05-23T05:20:23;21.97;;;15.90;;
2858;SDS011;1437;53.250;10.406;2023-05-23T05:22:56;28.10;;;14.70;;
2858;SDS011;1437;53.250;10.406;2023-05-23T05:25:27;20.43;;;15.50;;
2858;SDS011;1437;53.250;10.406;2023-05-23T05:27:56;18.40;;;14.33;;
2858;SDS011;1437;53.250;10.406;2023-05-23T05:30:24;19.20;;;15.50;;
2858;SDS011;1437;53.250;10.406;2023-05-23T05:32:59;18.33;;;15.03;;
2858;SDS011;1437;53.250;10.406;2023-05-23T05:35:29;20.40;;;14.40;;
2858;SDS011;1437;53.250;10.406;2023-05-23T05:37:57;23.40;;;16.43;;
2858;SDS011;1437;53.250;10.406;2023-05-23T05:40:28;18.27;;;15.00;;
2858;SDS011;1437;53.250;10.406;2023-05-23T05:42:55;22.50;;;14.40;;
2858;SDS011;1437;53.250;10.406;2023-05-23T05:45:22;24.30;;;14.50;;
2858;SDS011;1437;53.250;10.406;2023-05-23T05:47:50;16.57;;;13.20;;
2858;SDS011;1437;53.250;10.406;2023-05-23T05:50:17;22.33;;;14.70;;
2858;SDS011;1437;53.250;10.406;2023-05-23T05:52:51;18.03;;;15.10;;
2858;SDS011;1437;53.250;10.406;2023-05-23T05:55:19;22.83;;;15.43;;
2858;SDS011;1437;53.250;10.406;2023-05-23T05:57:46;18.87;;;14.97;;
2858;SDS011;1437;53.250;10.406;2023-05-23T06:00:15;21.00;;;15.60;;
2858;SDS011;1437;53.250;10.406;2023-05-23T06:02:43;20.53;;;15.70;;
2858;SDS011;1437;53.250;10.406;2023-05-23T06:05:12;25.10;;;16.97;;
2858;SDS011;1437;53.250;10.406;2023-05-23T06:07:48;25.27;;;17.37;;
2858;SDS011;1437;53.250;10.406;2023-05-23T06:10:16;24.43;;;16.00;;
2858;SDS011;1437;53.250;10.406;2023-05-23T06:12:54;21.90;;;16.10;;
2858;SDS011;1437;53.250;10.406;2023-05-23T06:15:34;27.07;;;17.67;;
2858;SDS011;1437;53.250;10.406;2023-05-23T06:18:05;23.60;;;17.20;;
2858;SDS011;1437;53.250;10.406;2023-05-23T06:20:53;19.77;;;15.67;;
2858;SDS011;1437;53.250;10.406;2023-05-23T06:23:33;26.77;;;16.23;;
2858;SDS011;1437;53.250;10.406;2023-05-23T06:26:07;27.80;;;17.83;;
2858;SDS011;1437;53.250;10.406;2023-05-23T06:28:40;21.93;;;16.90;;
2858;SDS011;1437;53.250;10.406;2023-05-23T06:31:24;26.00;;;16.87;;
2858;SDS011;1437;53.250;10.406;2023-05-23T06:33:58;24.17;;;16.77;;
2858;SDS011;1437;53.250;10.406;2023-05-23T06:36:36;25.30;;;16.33;;
2858;SDS011;1437;53.250;10.406;2023-05-23T06:39:12;29.00;;;17.07;;
2858;SDS011;1437;53.250;10.406;2023-05-23T06:41:40;22.87;;;17.40;;
2858;SDS011;1437;53.250;10.406;2023-05-23T06:44:10;23.40;;;16.60;;
2858;SDS011;1437;53.250;10.406;2023-05-23T06:46:38;29.90;;;19.00;;
2858;SDS011;1437;53.250;10.406;2023-05-23T06:49:07;34.70;;;23.90;;
2858;SDS011;1437;53.250;10.406;2023-05-23T06:55:01;27.60;;;17.63;;
2858;SDS011;1437;53.250;10.406;2023-05-23T06:57:35;24.20;;;17.30;;
2858;SDS011;1437;53.250;10.406;2023-05-23T07:00:06;26.53;;;18.37;;
2858;SDS011;1437;53.250;10.406;2023-05-23T07:02:36;31.63;;;18.90;;
2858;SDS011;1437;53.250;10.406;2023-05-23T07:05:19;24.50;;;17.50;;
2858;SDS011;1437;53.250;10.406;2023-05-23T07:07:59;26.17;;;16.13;;
2858;SDS011;1437;53.250;10.406;2023-05-23T07:10:32;29.03;;;17.63;;
2858;SDS011;1437;53.250;10.406;2023-05-23T07:13:06;30.03;;;18.73;;
2858;SDS011;1437;53.250;10.406;2023-05-23T07:15:50;25.40;;;18.73;;
2858;SDS011;1437;53.250;10.406;2023-05-23T07:18:33;30.70;;;19.93;;
2858;SDS011;1437;53.250;10.406;2023-05-23T07:21:31;38.23;;;21.00;;
2858;SDS011;1437;53.250;10.406;2023-05-23T07:24:13;30.47;;;19.23;;
2858;SDS011;1437;53.250;10.406;2023-05-23T07:26:51;29.30;;;19.27;;
2858;SDS011;1437;53.250;10.406;2023-05-23T07:29:19;30.90;;;20.73;;
2858;SDS011;1437;53.250;10.406;2023-05-23T07:31:48;33.50;;;21.70;;
2858;SDS011;1437;53.250;10.406;2023-05-23T07:34:16;34.60;;;21.10;;
2858;SDS011;1437;53.250;10.406;2023-05-23T07:36:50;34.30;;;20.67;;
2858;SDS011;1437;53.250;10.406;2023-05-23T07:39:46;30.67;;;20.90;;
2858;SDS011;1437;53.250;10.406;2023-05-23T07:42:22;30.37;;;19.87;;
2858;SDS011;1437;53.250;10.406;2023-05-23T07:45:04;35.70;;;22.90;;
2858;SDS011;1437;53.250;10.406;2023-05-23T07:47:36;34.07;;;21.47;;
2858;SDS011;1437;53.250;10.406;2023-05-23T07:50:13;32.47;;;20.53;;
2858;SDS011;1437;53.250;10.406;2023-05-23T07:52:42;32.80;;;19.93;;
2858;SDS011;1437;53.250;10.406;2023-05-23T07:55:11;29.73;;;19.20;;
2858;SDS011;1437;53.250;10.406;2023-05-23T07:57:44;25.30;;;18.07;;
2858;SDS011;1437;53.250;10.406;2023-05-23T08:00:13;30.03;;;21.27;;
2858;SDS011;1437;53.250;10.406;2023-05-23T08:02:42;24.33;;;18.23;;
2858;SDS011;1437;53.250;10.406;2023-05-23T08:05:09;26.27;;;18.60;;
2858;SDS011;1437;53.250;10.406;2023-05-23T08:07:38;30.13;;;19.43;;
2858;SDS011;1437;53.250;10.406;2023-05-23T08:10:07;23.60;;;17.77;;
2858;SDS011;1437;53.250;10.406;2023-05-23T08:12:39;22.70;;;17.23;;
2858;SDS011;1437;53.250;10.406;2023-05-23T08:15:11;21.00;;;15.67;;
2858;SDS011;1437;53.250;10.406;2023-05-23T08:17:43;20.23;;;14.17;;
2858;SDS011;1437;53.250;10.406;2023-05-23T08:20:15;24.57;;;15.90;;
2858;SDS011;1437;53.250;10.406;2023-05-23T08:22:46;18.17;;;14.63;;
2858;SDS011;1437;53.250;10.406;2023-05-23T08:25:14;16.33;;;12.93;;
2858;SDS011;1437;53.250;10.406;2023-05-23T08:27:43;16.90;;;13.50;;
2858;SDS011;1437;53.250;10.406;2023-05-23T08:30:23;17.40;;;13.30;;
2858;SDS011;1437;53.250;10.406;2023-05-23T08:32:51;19.43;;;14.40;;
2858;SDS011;1437;53.250;10.406;2023-05-23T08:35:27;20.07;;;16.07;;
2858;SDS011;1437;53.250;10.406;2023-05-23T08:38:05;22.80;;;14.90;;
2858;SDS011;1437;53.250;10.406;2023-05-23T08:40:48;21.20;;;15.37;;
2858;SDS011;1437;53.250;10.406;2023-05-23T08:43:18;16.43;;;14.67;;
2858;SDS011;1437;53.250;10.406;2023-05-23T08:45:47;17.77;;;14.13;;
2858;SDS011;1437;53.250;10.406;2023-05-23T08:48:16;16.00;;;13.83;;
2858;SDS011;1437;53.250;10.406;2023-05-23T08:50:47;16.70;;;12.90;;
2858;SDS011;1437;53.250;10.406;2023-05-23T08:53:18;17.90;;;14.00;;
2858;SDS011;1437;53.250;10.406;2023-05-23T08:58:39;14.60;;;13.10;;
2858;SDS011;1437;53.250;10.406;2023-05-23T09:01:16;11.50;;;10.30;;
2858;SDS011;1437;53.250;10.406;2023-05-23T09:03:45;14.53;;;11.63;;
2858;SDS011;1437;53.250;10.406;2023-05-23T09:06:14;12.17;;;10.30;;
2858;SDS011;1437;53.250;10.406;2023-05-23T09:08:43;11.67;;;9.70;;
2858;SDS011;1437;53.250;10.406;2023-05-23T09:11:12;14.20;;;10.73;;
2858;SDS011;1437;53.250;10.406;2023-05-23T09:22:53;12.17;;;8.47;;
2858;SDS011;1437;53.250;10.406;2023-05-23T09:25:22;17.30;;;6.73;;
2858;SDS011;1437;53.250;10.406;2023-05-23T09:28:03;8.17;;;7.20;;
2858;SDS011;1437;53.250;10.406;2023-05-23T09:30:38;8.63;;;6.80;;
2858;SDS011;1437;53.250;10.406;2023-05-23T09:33:13;7.47;;;5.90;;
2858;SDS011;1437;53.250;10.406;2023-05-23T09:35:54;7.50;;;6.37;;
2858;SDS011;1437;53.250;10.406;2023-05-23T09:38:26;7.50;;;4.97;;
2858;SDS011;1437;53.250;10.406;2023-05-23T09:41:02;6.57;;;5.10;;
2858;SDS011;1437;53.250;10.406;2023-05-23T09:43:30;8.00;;;5.00;;
2858;SDS011;1437;53.250;10.406;2023-05-23T09:46:03;12.57;;;6.67;;
2858;SDS011;1437;53.250;10.406;2023-05-23T09:48:45;7.63;;;5.70;;
2858;SDS011;1437;53.250;10.406;2023-05-23T09:51:33;10.90;;;6.07;;
2858;SDS011;1437;53.250;10.406;2023-05-23T10:03:10;7.67;;;4.77;;
2858;SDS011;1437;53.250;10.406;2023-05-23T10:05:55;8.03;;;6.07;;
2858;SDS011;1437;53.250;10.406;2023-05-23T10:08:42;7.57;;;5.67;;
2858;SDS011;1437;53.250;10.406;2023-05-23T10:13:48;7.80;;;6.93;;
2858;SDS011;1437;53.250;10.406;2023-05-23T10:22:48;9.53;;;8.07;;
2858;SDS011;1437;53.250;10.406;2023-05-23T10:25:27;17.90;;;11.37;;
2858;SDS011;1437;53.250;10.406;2023-05-23T10:28:14;13.07;;;7.60;;
2858;SDS011;1437;53.250;10.406;2023-05-23T10:31:16;11.23;;;9.00;;
2858;SDS011;1437;53.250;10.406;2023-05-23T10:36:46;15.13;;;8.07;;
2858;SDS011;1437;53.250;10.406;2023-05-23T10:39:24;12.50;;;10.73;;
2858;SDS011;1437;53.250;10.406;2023-05-23T10:42:10;11.97;;;8.47;;
2858;SDS011;1437;53.250;10.406;2023-05-23T10:44:40;13.00;;;9.37;;
2858;SDS011;1437;53.250;10.406;2023-05-23T10:47:13;12.27;;;8.07;;
2858;SDS011;1437;53.250;10.406;2023-05-23T10:49:58;13.93;;;9.13;;
2858;SDS011;1437;53.250;10.406;2023-05-23T10:52:43;10.63;;;7.60;;
2858;SDS011;1437;53.250;10.406;2023-05-23T11:03:49;11.33;;;7.57;;
2858;SDS011;1437;53.250;10.406;2023-05-23T11:06:37;7.43;;;5.57;;
2858;SDS011;1437;53.250;10.406;2023-05-23T11:09:09;10.90;;;6.50;;
2858;SDS011;1437;53.250;10.406;2023-05-23T11:11:58;11.93;;;6.40;;
2858;SDS011;1437;53.250;10.406;2023-05-23T11:23:53;11.77;;;8.00;;
2858;SDS011;1437;53.250;10.406;2023-05-23T11:26:36;12.60;;;8.10;;
2858;SDS011;1437;53.250;10.406;2023-05-23T11:29:07;14.20;;;7.80;;
2858;SDS011;1437;53.250;10.406;2023-05-23T11:31:42;9.23;;;6.87;;
2858;SDS011;1437;53.250;10.406;2023-05-23T11:34:11;13.70;;;7.97;;
2858;SDS011;1437;53.250;10.406;2023-05-23T11:36:39;12.33;;;9.03;;
2858;SDS011;1437;53.250;10.406;2023-05-23T11:39:08;10.73;;;8.30;;
2858;SDS011;1437;53.250;10.406;2023-05-23T11:41:37;13.20;;;8.50;;
2858;SDS011;1437;53.250;10.406;2023-05-23T11:44:18;12.50;;;7.87;;
2858;SDS011;1437;53.250;10.406;2023-05-23T11:46:59;13.20;;;7.33;;
2858;SDS011;1437;53.250;10.406;2023-05-23T11:49:36;10.00;;;6.63;;
2858;SDS011;1437;53.250;10.406;2023-05-23T11:52:08;12.83;;;6.97;;
2858;SDS011;1437;53.250;10.406;2023-05-23T11:57:37;8.03;;;6.60;;
2858;SDS011;1437;53.250;10.406;2023-05-23T12:00:23;14.57;;;6.10;;
2858;SDS011;1437;53.250;10.406;2023-05-23T12:02:55;10.50;;;8.80;;
2858;SDS011;1437;53.250;10.406;2023-05-23T12:05:26;9.87;;;7.00;;
2858;SDS011;1437;53.250;10.406;2023-05-23T12:11:34;9.03;;;5.13;;
2858;SDS011;1437;53.250;10.406;2023-05-23T12:14:15;8.40;;;5.23;;
2858;SDS011;1437;53.250;10.406;2023-05-23T12:16:50;10.90;;;5.80;;
2858;SDS011;1437;53.250;10.406;2023-05-23T12:19:35;8.20;;;5.60;;
2858;SDS011;1437;53.250;10.406;2023-05-23T12:24:44;8.83;;;5.60;;
2858;SDS011;1437;53.250;10.406;2023-05-23T12:29:48;7.80;;;4.90;;
2858;SDS011;1437;53.250;10.406;2023-05-23T12:32:16;15.07;;;6.87;;
2858;SDS011;1437;53.250;10.406;2023-05-23T12:34:43;9.63;;;4.70;;
2858;SDS011;1437;53.250;10.406;2023-05-23T12:37:28;13.10;;;6.40;;
2858;SDS011;1437;53.250;10.406;2023-05-23T12:39:57;7.57;;;3.73;;
2858;SDS011;1437;53.250;10.406;2023-05-23T12:42:25;10.23;;;4.00;;
2858;SDS011;1437;53.250;10.406;2023-05-23T12:44:54;5.47;;;3.67;;
2858;SDS011;1437;53.250;10.406;2023-05-23T12:47:22;11.70;;;4.13;;
2858;SDS011;1437;53.250;10.406;2023-05-23T12:52:52;5.63;;;2.67;;
2858;SDS011;1437;53.250;10.406;2023-05-23T12:55:21;6.93;;;3.57;;
2858;SDS011;1437;53.250;10.406;2023-05-23T12:57:51;9.30;;;4.10;;
2858;SDS011;1437;53.250;10.406;2023-05-23T13:00:22;11.50;;;3.47;;
2858;SDS011;1437;53.250;10.406;2023-05-23T13:02:50;7.03;;;3.47;;
2858;SDS011;1437;53.250;10.406;2023-05-23T13:05:18;7.33;;;3.87;;
2858;SDS011;1437;53.250;10.406;2023-05-23T13:07:46;8.07;;;4.30;;
2858;SDS011;1437;53.250;10.406;2023-05-23T13:10:14;11.20;;;4.17;;
2858;SDS011;1437;53.250;10.406;2023-05-23T13:12:43;12.70;;;3.70;;
2858;SDS011;1437;53.250;10.406;2023-05-23T13:15:11;8.40;;;3.70;;
2858;SDS011;1437;53.250;10.406;2023-05-23T13:17:44;8.33;;;3.47;;
2858;SDS011;1437;53.250;10.406;2023-05-23T13:22:55;9.57;;;4.60;;
2858;SDS011;1437;53.250;10.406;2023-05-23T13:25:24;8.60;;;3.47;;
2858;SDS011;1437;53.250;10.406;2023-05-23T13:28:11;10.03;;;3.37;;
2858;SDS011;1437;53.250;10.406;2023-05-23T13:30:45;6.37;;;2.60;;
2858;SDS011;1437;53.250;10.406;2023-05-23T21:23:41;10.37;;;2.97;;
2858;SDS011;1437;53.250;10.406;2023-05-23T21:26:08;10.30;;;2.90;;
2858;SDS011;1437;53.250;10.406;2023-05-23T21:28:37;10.40;;;3.30;;
2858;SDS011;1437;53.250;10.406;2023-05-23T21:31:09;8.70;;;2.97;;
2858;SDS011;1437;53.250;10.406;2023-05-23T21:33:37;9.00;;;2.90;;
2858;SDS011;1437;53.250;10.406;2023-05-23T21:36:05;8.47;;;2.50;;
2858;SDS011;1437;53.250;10.406;2023-05-23T21:38:33;11.43;;;2.73;;
2858;SDS011;1437;53.250;10.406;2023-05-23T21:41:03;10.33;;;2.40;;
2858;SDS011;1437;53.250;10.406;2023-05-23T21:43:31;11.80;;;3.23;;
2858;SDS011;1437;53.250;10.406;2023-05-23T21:45:59;20.37;;;4.33;;
2858;SDS011;1437;53.250;10.406;2023-05-23T21:48:28;12.20;;;3.10;;
2858;SDS011;1437;53.250;10.406;2023-05-23T21:50:58;10.67;;;3.73;;
2858;SDS011;1437;53.250;10.406;2023-05-23T21:53:27;17.93;;;3.50;;
2858;SDS011;1437;53.250;10.406;2023-05-23T21:56:01;15.40;;;2.83;;
2858;SDS011;1437;53.250;10.406;2023-05-23T21:58:37;14.33;;;4.20;;
2858;SDS011;1437;53.250;10.406;2023-05-23T22:01:06;14.80;;;5.00;;
2858;SDS011;1437;53.250;10.406;2023-05-23T22:03:34;14.97;;;3.40;;
2858;SDS011;1437;53.250;10.406;2023-05-23T22:06:02;21.30;;;3.17;;
2858;SDS011;1437;53.250;10.406;2023-05-23T22:08:33;15.17;;;3.13;;
2858;SDS011;1437;53.250;10.406;2023-05-23T22:11:00;12.87;;;3.67;;
2858;SDS011;1437;53.250;10.406;2023-05-23T22:13:34;20.07;;;3.70;;
2858;SDS011;1437;53.250;10.406;2023-05-23T22:16:17;14.53;;;3.93;;
2858;SDS011;1437;53.250;10.406;2023-05-23T22:18:56;18.10;;;3.37;;
2858;SDS011;1437;53.250;10.406;2023-05-23T22:21:37;11.53;;;2.73;;
2858;SDS011;1437;53.250;10.406;2023-05-23T22:24:04;9.80;;;2.40;;
2858;SDS011;1437;53.250;10.406;2023-05-23T22:26:33;18.57;;;3.20;;
2858;SDS011;1437;53.250;10.406;2023-05-23T22:29:08;18.07;;;2.93;;
2858;SDS011;1437;53.250;10.406;2023-05-23T22:31:45;17.63;;;3.83;;
2858;SDS011;1437;53.250;10.406;2023-05-23T22:34:15;10.33;;;3.70;;
2858;SDS011;1437;53.250;10.406;2023-05-23T22:36:43;15.67;;;3.60;;
2858;SDS011;1437;53.250;10.406;2023-05-23T22:39:12;17.93;;;4.50;;
2858;SDS011;1437;53.250;10.406;2023-05-23T22:41:42;13.37;;;3.00;;
2858;SDS011;1437;53.250;10.406;2023-05-23T22:44:22;18.40;;;3.97;;
2858;SDS011;1437;53.250;10.406;2023-05-23T22:46:53;9.80;;;3.30;;
2858;SDS011;1437;53.250;10.406;2023-05-23T22:49:21;10.73;;;3.07;;
2858;SDS011;1437;53.250;10.406;2023-05-23T22:51:50;14.73;;;3.47;;
2858;SDS011;1437;53.250;10.406;2023-05-23T22:54:18;11.63;;;3.17;;
2858;SDS011;1437;53.250;10.406;2023-05-23T22:56:47;12.73;;;3.50;;
2858;SDS011;1437;53.250;10.406;2023-05-23T22:59:15;16.23;;;4.00;;
2858;SDS011;1437;53.250;10.406;2023-05-23T23:01:45;14.40;;;4.03;;
2858;SDS011;1437;53.250;10.406;2023-05-23T23:04:31;18.73;;;4.33;;
2858;SDS011;1437;53.250;10.406;2023-05-23T23:07:03;19.30;;;3.70;;
2858;SDS011;1437;53.250;10.406;2023-05-23T23:09:33;10.40;;;3.00;;
2858;SDS011;1437;53.250;10.406;2023-05-23T23:12:02;16.33;;;4.20;;
2858;SDS011;1437;53.250;10.406;2023-05-23T23:14:37;10.03;;;3.50;;
2858;SDS011;1437;53.250;10.406;2023-05-23T23:17:14;10.90;;;3.20;;
2858;SDS011;1437;53.250;10.406;2023-05-23T23:19:47;25.73;;;4.50;;
2858;SDS011;1437;53.250;10.406;2023-05-23T23:22:15;12.73;;;3.43;;
2858;SDS011;1437;53.250;10.406;2023-05-23T23:24:47;15.80;;;3.20;;
2858;SDS011;1437;53.250;10.406;2023-05-23T23:27:16;18.17;;;4.17;;
2858;SDS011;1437;53.250;10.406;2023-05-23T23:29:56;10.40;;;3.20;;
2858;SDS011;1437;53.250;10.406;2023-05-23T23:32:36;14.13;;;3.00;;
2858;SDS011;1437;53.250;10.406;2023-05-23T23:38:05;17.07;;;5.17;;
2858;SDS011;1437;53.250;10.406;2023-05-23T23:40:33;12.33;;;4.07;;
2858;SDS011;1437;53.250;10.406;2023-05-23T23:43:00;20.13;;;4.13;;
2858;SDS011;1437;53.250;10.406;2023-05-23T23:45:28;17.60;;;4.10;;
2858;SDS011;1437;53.250;10.406;2023-05-23T23:47:55;15.63;;;3.57;;
2858;SDS011;1437;53.250;10.406;2023-05-23T23:50:23;17.70;;;4.00;;
2858;SDS011;1437;53.250;10.406;2023-05-23T23:52:55;12.53;;;3.73;;
2858;SDS011;1437;53.250;10.406;2023-05-23T23:55:36;16.13;;;3.33;;
2858;SDS011;1437;53.250;10.406;2023-05-23T23:58:07;16.57;;;3.63;;
